Holstein, IA (51025)

11:45 AM CDT on July 28, 2014 (GMT -0500)
Holstein Ag Services, LLC (KIAHOLST2) Elev 1381 ft | 42.50 °N, 95.54 °W | Change Station

Current weather conditions updated 74 days ago

Rain
Rain
72 °F
Feels Like 72 °F
N
12
Wind Variable Wind from North
Gusts 15 mph

Today is forecast to be Much Warmer than yesterday.

Today
High -- | Low -- °F
--% Chance of Precip.
Yesterday
High -- | Low -- °F
Precip. -- in
6:10 AM 8:46 PM
Waxing Crescent, 3% visible
Pressure 30.27 in
Visibility 10.0 miles
Clouds Overcast 1700 ft
Dew Point 57 °F
Humidity 63%
Rainfall 0.06 in
Snow Depth Not available.
UV 3 out of 12
Pollen 5.60 out of 12
Air Quality Not available.
Flu Activity Not available.
METAR KCKP 281635Z AUTO 34006KT 10SM OVC017 18/16 A3027 RMK AO2 T01780158

More Conditions Fewer Conditions

Pressure 30.27 in
Visibility 10.0 miles
Clouds Overcast 1700 ft
Dew Point 57 °F
Humidity 63%
Rainfall 0.06 in
Snow Depth Not available.
UV 3 out of 12
Pollen 5.60 out of 12
Air Quality Not available.
Flu Activity Not available.
METAR KCKP 281635Z AUTO 34006KT 10SM OVC017 18/16 A3027 RMK AO2 T01780158

More Conditions Fewer Conditions

10-Day Weather Forecast

Almanac

Astronomy

Jul. 28, 2014 Rise Set
Actual Time 6:10 AM CDT 8:46 PM CDT
Civil Twilight 5:38 AM CDT 9:18 PM CDT
Nautical Twilight 4:57 AM CDT 9:58 PM CDT
Astronomical Twilight 4:11 AM CDT 10:44 PM CDT
Moon 7:56 AM CDT 9:24 PM CDT
Length of Visible Light 15h 40m
Length of Day
14h 35m
Tomorrow will be 2m 4s shorter.
Waxing Crescent, 3% of the Moon is Illuminated
Today
Waxing Crescent
Aug 3
First Quarter
Aug 10
Full
Aug 17
Last Quarter
Aug 25
New

Today's Extremes

State Highs State Lows

Community

WunderPhotos

Upload Photos

1,738,407 photos uploaded!

Nearby

Snow Depth

Station Depth Elevation
No new snow has been reported.

Earthquake Activity

City Distance Mag. Time & Date
No recent earthquake activity has been reported nearby.
Minimum magnitude displayed is 2.5.

Coastal Water Temperatures

Place Temperature
No Stations Reporting

Nearby Weather Stations

Station Location Temp. Heat Index Dew Point Humidity Wind Precip. Elev Updated Type
MesoWest SHAGBARK HILLS , Correctionville, IA 58 °F - 56 °F 91% North  at  5 mph 0.00 in / hr 1399 ft 8:00 AM CDT MADIS
Oxendales Arthur, IA, Arthur, IA 67.5 °F - 61 °F 80% WNW  at  3.1 mph 0.00 in / hr 1496 ft 11:45 AM CDT Rapid Fire
The Danbury Review, Danbury, IA 66.6 °F - 60 °F 79% NW  at  0.0 mph 0.00 in / hr 1162 ft 11:45 AM CDT Normal
Ricklefs Home, Storm Lake, IA 71.6 °F 74 °F 63 °F 74% NNW  at  1.6 mph 0.00 in / hr 1414 ft 11:45 AM CDT Rapid Fire

Show More Stations Show Fewer Stations